Time,TemperatureF,DewpointF,PressureIn,WindDirection,WindDirectionDegrees,WindSpeedMPH,WindSpeedGustMPH,Humidity,HourlyPrecipIn,Conditions,Clouds,dailyrainin,SoftwareType,DateUTC
2013-10-22 00:13:00,51.5,44.0,29.86,ENE,65,0.0,0.0,75,0.00,,,0.00,weatherlink.com 1.10,2013-10-22 04:13:00,
2013-10-22 00:28:00,51.1,43.0,29.86,ENE,65,0.0,0.0,75,0.00,,,0.00,weatherlink.com 1.10,2013-10-22 04:28:00,
2013-10-22 00:43:00,50.4,44.0,29.85,ENE,65,0.0,0.0,78,0.00,,,0.00,weatherlink.com 1.10,2013-10-22 04:43:00,
2013-10-22 00:58:00,49.6,44.0,29.84,ENE,65,0.0,0.0,80,0.00,,,0.00,weatherlink.com 1.10,2013-10-22 04:58:00,
2013-10-22 01:14:00,48.8,43.0,29.84,ENE,65,0.0,0.0,81,0.00,,,0.00,weatherlink.com 1.10,2013-10-22 05:14:00,
2013-10-22 01:29:00,48.0,43.0,29.84,ENE,65,0.0,1.0,83,0.00,,,0.00,weatherlink.com 1.10,2013-10-22 05:29:00,
2013-10-22 01:44:00,47.3,43.0,29.84,ENE,65,0.0,1.0,84,0.00,,,0.00,weatherlink.com 1.10,2013-10-22 05:44:00,
2013-10-22 01:59:00,46.7,43.0,29.84,ENE,65,0.0,1.0,86,0.00,,,0.00,weatherlink.com 1.10,2013-10-22 05:59:00,
2013-10-22 02:14:00,46.1,42.0,29.84,ENE,65,0.0,1.0,86,0.00,,,0.00,weatherlink.com 1.10,2013-10-22 06:14:00,
2013-10-22 02:29:00,45.4,42.0,29.84,ENE,65,0.0,1.0,87,0.00,,,0.00,weatherlink.com 1.10,2013-10-22 06:29:00,
2013-10-22 02:44:00,45.0,42.0,29.84,ENE,65,0.0,0.0,89,0.00,,,0.00,weatherlink.com 1.10,2013-10-22 06:44:00,
2013-10-22 02:59:00,44.9,42.0,29.83,NE,44,0.0,2.0,90,0.00,,,0.00,weatherlink.com 1.10,2013-10-22 06:59:00,
2013-10-22 03:14:00,44.8,42.0,29.83,NE,44,0.0,0.0,90,0.00,,,0.00,weatherlink.com 1.10,2013-10-22 07:14:00,
2013-10-22 03:29:00,44.4,42.0,29.83,NE,44,0.0,0.0,91,0.00,,,0.00,weatherlink.com 1.10,2013-10-22 07:29:00,
2013-10-22 03:44:00,44.5,42.0,29.82,NE,44,0.0,0.0,92,0.00,,,0.00,weatherlink.com 1.10,2013-10-22 07:44:00,
2013-10-22 03:59:00,45.0,43.0,29.81,NE,44,0.0,0.0,93,0.00,,,0.00,weatherlink.com 1.10,2013-10-22 07:59:00,
2013-10-22 04:14:00,45.6,44.0,29.82,NE,44,0.0,0.0,92,0.00,,,0.00,weatherlink.com 1.10,2013-10-22 08:14:00,
2013-10-22 04:29:00,46.3,44.0,29.81,NE,44,0.0,0.0,92,0.00,,,0.00,weatherlink.com 1.10,2013-10-22 08:29:00,
2013-10-22 04:44:00,46.9,45.0,29.80,NE,44,0.0,0.0,91,0.00,,,0.00,weatherlink.com 1.10,2013-10-22 08:44:00,
2013-10-22 04:59:00,47.4,45.0,29.80,NE,44,0.0,0.0,90,0.00,,,0.00,weatherlink.com 1.10,2013-10-22 08:59:00,
2013-10-22 05:14:00,47.5,45.0,29.80,NE,44,0.0,0.0,90,0.00,,,0.00,weatherlink.com 1.10,2013-10-22 09:14:00,
2013-10-22 05:29:00,47.3,44.0,29.80,NE,44,0.0,0.0,89,0.00,,,0.00,weatherlink.com 1.10,2013-10-22 09:29:00,
2013-10-22 05:44:00,46.8,44.0,29.79,NE,44,0.0,0.0,90,0.00,,,0.00,weatherlink.com 1.10,2013-10-22 09:44:00,
2013-10-22 05:59:00,46.6,44.0,29.79,NE,44,0.0,0.0,92,0.00,,,0.00,weatherlink.com 1.10,2013-10-22 09:59:00,
2013-10-22 06:14:00,47.1,45.0,29.79,NE,44,0.0,1.0,92,0.00,,,0.00,weatherlink.com 1.10,2013-10-22 10:14:00,
2013-10-22 06:29:00,47.8,45.0,29.79,NE,44,0.0,0.0,91,0.00,,,0.00,weatherlink.com 1.10,2013-10-22 10:29:00,
2013-10-22 06:44:00,48.1,45.0,29.78,NE,44,0.0,1.0,90,0.00,,,0.00,weatherlink.com 1.10,2013-10-22 10:44:00,
2013-10-22 06:59:00,47.9,45.0,29.78,NE,44,0.0,0.0,89,0.00,,,0.00,weatherlink.com 1.10,2013-10-22 10:59:00,
2013-10-22 07:14:00,47.2,45.0,29.78,NE,44,0.0,0.0,90,0.00,,,0.00,weatherlink.com 1.10,2013-10-22 11:14:00,
2013-10-22 07:29:00,46.6,44.0,29.78,NE,44,0.0,0.0,91,0.00,,,0.00,weatherlink.com 1.10,2013-10-22 11:29:00,
2013-10-22 07:44:00,46.3,44.0,29.78,NE,44,0.0,1.0,92,0.00,,,0.00,weatherlink.com 1.10,2013-10-22 11:44:00,
2013-10-22 07:59:00,46.8,45.0,29.78,NE,44,0.0,0.0,94,0.00,,,0.00,weatherlink.com 1.10,2013-10-22 11:59:00,
2013-10-22 08:14:00,47.4,46.0,29.79,NE,44,0.0,0.0,93,0.00,,,0.00,weatherlink.com 1.10,2013-10-22 12:14:00,
2013-10-22 08:29:00,48.0,46.0,29.79,NE,44,0.0,0.0,92,0.00,,,0.00,weatherlink.com 1.10,2013-10-22 12:29:00,
2013-10-22 08:44:00,48.7,47.0,29.80,NE,44,0.0,0.0,92,0.00,,,0.00,weatherlink.com 1.10,2013-10-22 12:44:00,
2013-10-22 08:59:00,49.9,47.0,29.80,NE,44,0.0,1.0,91,0.00,,,0.00,weatherlink.com 1.10,2013-10-22 12:59:00,
2013-10-22 09:15:00,51.1,49.0,29.81,NW,313,2.0,2.0,91,0.00,,,0.00,weatherlink.com 1.10,2013-10-22 13:15:00,
2013-10-22 09:30:00,53.3,49.0,29.81,NW,311,0.0,4.0,84,0.00,,,0.00,weatherlink.com 1.10,2013-10-22 13:30:00,
2013-10-22 09:45:00,54.5,49.0,29.81,NW,304,1.0,3.0,81,0.00,,,0.00,weatherlink.com 1.10,2013-10-22 13:45:00,
2013-10-22 10:00:00,54.7,50.0,29.81,East,96,0.0,2.0,83,0.00,,,0.00,weatherlink.com 1.10,2013-10-22 14:00:00,
2013-10-22 10:15:00,55.0,50.0,29.81,East,96,0.0,1.0,83,0.00,,,0.00,weatherlink.com 1.10,2013-10-22 14:15:00,
2013-10-22 10:30:00,55.7,50.0,29.81,WNW,303,1.0,3.0,80,0.00,,,0.00,weatherlink.com 1.10,2013-10-22 14:30:00,
2013-10-22 10:45:00,56.1,50.0,29.81,WNW,292,0.0,3.0,81,0.00,,,0.00,weatherlink.com 1.10,2013-10-22 14:45:00,
2013-10-22 10:59:00,56.4,51.0,29.82,WNW,292,1.0,3.0,81,0.00,,,0.00,weatherlink.com 1.10,2013-10-22 14:59:00,
2013-10-22 11:15:00,56.6,49.0,29.81,WNW,294,1.0,3.0,77,0.00,,,0.00,weatherlink.com 1.10,2013-10-22 15:15:00,
2013-10-22 11:30:00,56.9,49.0,29.81,WNW,291,3.0,5.0,76,0.00,,,0.00,weatherlink.com 1.10,2013-10-22 15:30:00,
2013-10-22 11:45:00,57.2,50.0,29.80,WNW,300,1.0,3.0,78,0.00,,,0.00,weatherlink.com 1.10,2013-10-22 15:45:00,
2013-10-22 12:00:00,57.4,50.0,29.80,WNW,300,1.0,5.0,76,0.00,,,0.00,weatherlink.com 1.10,2013-10-22 16:00:00,
2013-10-22 12:15:00,57.9,50.0,29.80,WNW,296,0.0,3.0,74,0.00,,,0.00,weatherlink.com 1.10,2013-10-22 16:15:00,
2013-10-22 12:30:00,59.7,51.0,29.80,WNW,288,5.0,6.0,72,0.00,,,0.00,weatherlink.com 1.10,2013-10-22 16:30:00,
2013-10-22 12:45:00,60.0,50.0,29.80,West,268,3.0,7.0,69,0.00,,,0.00,weatherlink.com 1.10,2013-10-22 16:45:00,
2013-10-22 13:00:00,59.8,49.0,29.80,WNW,286,4.0,7.0,68,0.00,,,0.00,weatherlink.com 1.10,2013-10-22 17:00:00,
2013-10-22 13:15:00,59.9,49.0,29.79,WNW,298,3.0,9.0,67,0.00,,,0.00,weatherlink.com 1.10,2013-10-22 17:15:00,
2013-10-22 13:30:00,60.4,50.0,29.79,WNW,284,2.0,6.0,68,0.00,,,0.00,weatherlink.com 1.10,2013-10-22 17:30:00,
2013-10-22 13:45:00,60.0,48.0,29.79,WSW,245,1.0,12.0,65,0.00,,,0.00,weatherlink.com 1.10,2013-10-22 17:45:00,
2013-10-22 14:00:00,59.3,47.0,29.78,West,270,6.0,11.0,65,0.00,,,0.00,weatherlink.com 1.10,2013-10-22 18:00:00,
2013-10-22 14:15:00,58.9,47.0,29.78,NW,309,3.0,12.0,65,0.00,,,0.00,weatherlink.com 1.10,2013-10-22 18:15:00,
2013-10-22 14:30:00,58.6,46.0,29.78,WNW,294,5.0,8.0,64,0.00,,,0.00,weatherlink.com 1.10,2013-10-22 18:30:00,
2013-10-22 14:45:00,58.1,45.0,29.77,WNW,298,3.0,12.0,63,0.00,,,0.00,weatherlink.com 1.10,2013-10-22 18:45:00,
2013-10-22 15:00:00,58.2,45.0,29.77,WNW,300,4.0,10.0,63,0.00,,,0.00,weatherlink.com 1.10,2013-10-22 19:00:00,
2013-10-22 15:15:00,59.1,45.0,29.78,WNW,296,6.0,12.0,60,0.00,,,0.00,weatherlink.com 1.10,2013-10-22 19:15:00,
2013-10-22 15:30:00,58.9,43.0,29.78,West,278,7.0,14.0,57,0.00,,,0.00,weatherlink.com 1.10,2013-10-22 19:30:00,
2013-10-22 15:45:00,58.5,43.0,29.78,WNW,294,5.0,14.0,56,0.00,,,0.00,weatherlink.com 1.10,2013-10-22 19:45:00,
2013-10-22 16:00:00,58.4,42.0,29.78,NW,305,2.0,8.0,55,0.00,,,0.00,weatherlink.com 1.10,2013-10-22 20:00:00,
2013-10-22 16:15:00,58.5,41.0,29.78,WNW,301,4.0,12.0,53,0.00,,,0.00,weatherlink.com 1.10,2013-10-22 20:15:00,
2013-10-22 16:30:00,58.2,37.0,29.78,WNW,283,10.0,13.0,46,0.00,,,0.00,weatherlink.com 1.10,2013-10-22 20:30:00,
2013-10-22 16:45:00,57.4,34.0,29.78,WNW,288,1.0,10.0,42,0.00,,,0.00,weatherlink.com 1.10,2013-10-22 20:45:00,
2013-10-22 17:00:00,57.0,33.0,29.79,WNW,300,3.0,8.0,41,0.00,,,0.00,weatherlink.com 1.10,2013-10-22 21:00:00,
2013-10-22 17:15:00,56.6,34.0,29.79,NW,309,7.0,8.0,42,0.00,,,0.00,weatherlink.com 1.10,2013-10-22 21:15:00,
2013-10-22 17:30:00,56.1,33.0,29.79,WNW,285,4.0,8.0,42,0.00,,,0.00,weatherlink.com 1.10,2013-10-22 21:30:00,
2013-10-22 17:45:00,55.4,35.0,29.79,WNW,292,3.0,6.0,46,0.00,,,0.00,weatherlink.com 1.10,2013-10-22 21:45:00,
2013-10-22 18:00:00,54.6,35.0,29.80,NW,305,1.0,4.0,47,0.00,,,0.00,weatherlink.com 1.10,2013-10-22 22:00:00,
2013-10-22 18:15:00,53.4,35.0,29.79,WNW,293,2.0,4.0,50,0.00,,,0.00,weatherlink.com 1.10,2013-10-22 22:15:00,
2013-10-22 18:30:00,52.4,36.0,29.80,NW,309,0.0,2.0,53,0.00,,,0.00,weatherlink.com 1.10,2013-10-22 22:30:00,
2013-10-22 18:45:00,50.5,36.0,29.80,NW,309,2.0,3.0,58,0.00,,,0.00,weatherlink.com 1.10,2013-10-22 22:45:00,
2013-10-22 19:00:00,49.6,34.0,29.79,WNW,292,1.0,5.0,56,0.00,,,0.00,weatherlink.com 1.10,2013-10-22 23:00:00,
2013-10-22 19:15:00,50.0,34.0,29.79,WNW,293,2.0,4.0,54,0.00,,,0.00,weatherlink.com 1.10,2013-10-22 23:15:00,
2013-10-22 19:30:00,49.8,34.0,29.79,WNW,286,1.0,2.0,55,0.00,,,0.00,weatherlink.com 1.10,2013-10-22 23:30:00,
2013-10-22 19:45:00,49.4,35.0,29.79,West,265,0.0,5.0,58,0.00,,,0.00,weatherlink.com 1.10,2013-10-22 23:45:00,
2013-10-22 20:00:00,48.8,34.0,29.79,NNW,344,0.0,1.0,58,0.00,,,0.00,weatherlink.com 1.10,2013-10-23 00:00:00,
2013-10-22 20:15:00,47.6,35.0,29.79,WSW,245,0.0,2.0,61,0.00,,,0.00,weatherlink.com 1.10,2013-10-23 00:15:00,
2013-10-22 20:30:00,46.7,35.0,29.79,West,279,0.0,2.0,64,0.00,,,0.00,weatherlink.com 1.10,2013-10-23 00:30:00,
2013-10-22 20:45:00,46.1,35.0,29.79,WNW,282,0.0,2.0,65,0.00,,,0.00,weatherlink.com 1.10,2013-10-23 00:45:00,
2013-10-22 21:00:00,45.9,35.0,29.80,WNW,282,0.0,1.0,66,0.00,,,0.00,weatherlink.com 1.10,2013-10-23 01:00:00,
2013-10-22 21:15:00,44.8,36.0,29.80,WNW,282,0.0,1.0,70,0.00,,,0.00,weatherlink.com 1.10,2013-10-23 01:15:00,
2013-10-22 21:30:00,43.4,35.0,29.81,WNW,282,0.0,0.0,73,0.00,,,0.00,weatherlink.com 1.10,2013-10-23 01:30:00,
2013-10-22 21:46:00,42.2,35.0,29.80,WNW,282,1.0,2.0,76,0.00,,,0.00,weatherlink.com 1.10,2013-10-23 01:46:00,
2013-10-22 22:01:00,42.1,35.0,29.80,West,271,1.0,3.0,75,0.00,,,0.00,weatherlink.com 1.10,2013-10-23 02:01:00,
2013-10-22 22:16:00,43.2,35.0,29.81,West,270,0.0,3.0,72,0.00,,,0.00,weatherlink.com 1.10,2013-10-23 02:16:00,
2013-10-22 22:31:00,42.9,35.0,29.81,West,270,0.0,0.0,73,0.00,,,0.00,weatherlink.com 1.10,2013-10-23 02:31:00,
2013-10-22 22:46:00,41.8,35.0,29.81,West,270,0.0,0.0,77,0.00,,,0.00,weatherlink.com 1.10,2013-10-23 02:46:00,
2013-10-22 23:01:00,41.2,36.0,29.81,West,270,0.0,0.0,80,0.00,,,0.00,weatherlink.com 1.10,2013-10-23 03:01:00,
2013-10-22 23:16:00,40.2,35.0,29.80,West,270,0.0,2.0,81,0.00,,,0.00,weatherlink.com 1.10,2013-10-23 03:16:00,
2013-10-22 23:31:00,39.4,35.0,29.79,West,270,0.0,0.0,83,0.00,,,0.00,weatherlink.com 1.10,2013-10-23 03:31:00,
2013-10-22 23:46:00,38.9,35.0,29.79,West,270,0.0,1.0,85,0.00,,,0.00,weatherlink.com 1.10,2013-10-23 03:46:00,